sensor_id;sensor_type;location;lat;lon;timestamp;P1;durP1;ratioP1;P2;durP2;ratioP2
3708;SDS011;1870;53.996;10.784;2023-05-07T00:01:41;23.30;;;11.33;;
3708;SDS011;1870;53.996;10.784;2023-05-07T00:04:07;19.33;;;12.20;;
3708;SDS011;1870;53.996;10.784;2023-05-07T00:06:33;17.77;;;10.83;;
3708;SDS011;1870;53.996;10.784;2023-05-07T00:08:59;15.27;;;10.30;;
3708;SDS011;1870;53.996;10.784;2023-05-07T00:11:25;15.80;;;11.30;;
3708;SDS011;1870;53.996;10.784;2023-05-07T00:13:51;17.97;;;11.60;;
3708;SDS011;1870;53.996;10.784;2023-05-07T00:16:20;16.83;;;11.57;;
3708;SDS011;1870;53.996;10.784;2023-05-07T00:18:45;18.53;;;11.27;;
3708;SDS011;1870;53.996;10.784;2023-05-07T00:21:11;18.93;;;12.30;;
3708;SDS011;1870;53.996;10.784;2023-05-07T00:23:37;17.73;;;11.47;;
3708;SDS011;1870;53.996;10.784;2023-05-07T00:26:03;17.97;;;12.03;;
3708;SDS011;1870;53.996;10.784;2023-05-07T00:28:29;17.50;;;11.47;;
3708;SDS011;1870;53.996;10.784;2023-05-07T00:30:54;17.80;;;11.90;;
3708;SDS011;1870;53.996;10.784;2023-05-07T00:33:21;20.40;;;13.03;;
3708;SDS011;1870;53.996;10.784;2023-05-07T00:35:47;17.47;;;10.90;;
3708;SDS011;1870;53.996;10.784;2023-05-07T00:38:13;20.63;;;12.43;;
3708;SDS011;1870;53.996;10.784;2023-05-07T00:40:39;19.23;;;11.40;;
3708;SDS011;1870;53.996;10.784;2023-05-07T00:43:05;16.57;;;12.00;;
3708;SDS011;1870;53.996;10.784;2023-05-07T00:45:32;15.97;;;11.47;;
3708;SDS011;1870;53.996;10.784;2023-05-07T00:47:59;17.97;;;13.03;;
3708;SDS011;1870;53.996;10.784;2023-05-07T00:50:26;18.77;;;12.33;;
3708;SDS011;1870;53.996;10.784;2023-05-07T00:52:53;16.83;;;11.70;;
3708;SDS011;1870;53.996;10.784;2023-05-07T00:55:19;14.90;;;11.07;;
3708;SDS011;1870;53.996;10.784;2023-05-07T00:57:46;16.20;;;10.90;;
3708;SDS011;1870;53.996;10.784;2023-05-07T01:00:12;14.07;;;9.93;;
3708;SDS011;1870;53.996;10.784;2023-05-07T01:02:38;18.00;;;11.17;;
3708;SDS011;1870;53.996;10.784;2023-05-07T01:05:04;17.33;;;11.63;;
3708;SDS011;1870;53.996;10.784;2023-05-07T01:07:32;13.70;;;10.50;;
3708;SDS011;1870;53.996;10.784;2023-05-07T01:09:59;13.60;;;10.20;;
3708;SDS011;1870;53.996;10.784;2023-05-07T01:12:26;16.00;;;10.90;;
3708;SDS011;1870;53.996;10.784;2023-05-07T01:14:53;14.00;;;10.00;;
3708;SDS011;1870;53.996;10.784;2023-05-07T01:17:19;13.43;;;10.30;;
3708;SDS011;1870;53.996;10.784;2023-05-07T01:19:45;16.00;;;10.43;;
3708;SDS011;1870;53.996;10.784;2023-05-07T01:22:12;15.70;;;10.47;;
3708;SDS011;1870;53.996;10.784;2023-05-07T01:24:41;14.70;;;10.33;;
3708;SDS011;1870;53.996;10.784;2023-05-07T01:27:07;17.50;;;11.63;;
3708;SDS011;1870;53.996;10.784;2023-05-07T01:29:33;14.33;;;10.10;;
3708;SDS011;1870;53.996;10.784;2023-05-07T01:31:59;17.40;;;11.00;;
3708;SDS011;1870;53.996;10.784;2023-05-07T01:34:30;16.60;;;11.40;;
3708;SDS011;1870;53.996;10.784;2023-05-07T01:36:57;15.80;;;10.47;;
3708;SDS011;1870;53.996;10.784;2023-05-07T01:39:25;16.90;;;11.63;;
3708;SDS011;1870;53.996;10.784;2023-05-07T01:41:54;14.33;;;10.10;;
3708;SDS011;1870;53.996;10.784;2023-05-07T01:44:21;17.70;;;11.80;;
3708;SDS011;1870;53.996;10.784;2023-05-07T01:46:47;16.27;;;11.23;;
3708;SDS011;1870;53.996;10.784;2023-05-07T01:49:14;18.10;;;12.93;;
3708;SDS011;1870;53.996;10.784;2023-05-07T01:51:41;17.80;;;11.27;;
3708;SDS011;1870;53.996;10.784;2023-05-07T01:54:07;18.30;;;11.33;;
3708;SDS011;1870;53.996;10.784;2023-05-07T01:56:33;14.60;;;10.73;;
3708;SDS011;1870;53.996;10.784;2023-05-07T01:58:59;17.03;;;11.30;;
3708;SDS011;1870;53.996;10.784;2023-05-07T02:01:25;17.40;;;10.70;;
3708;SDS011;1870;53.996;10.784;2023-05-07T02:03:51;14.80;;;11.60;;
3708;SDS011;1870;53.996;10.784;2023-05-07T02:06:16;15.63;;;11.27;;
3708;SDS011;1870;53.996;10.784;2023-05-07T02:08:42;15.30;;;10.90;;
3708;SDS011;1870;53.996;10.784;2023-05-07T02:11:08;16.70;;;11.40;;
3708;SDS011;1870;53.996;10.784;2023-05-07T02:13:33;15.30;;;11.50;;
3708;SDS011;1870;53.996;10.784;2023-05-07T02:15:59;16.53;;;10.20;;
3708;SDS011;1870;53.996;10.784;2023-05-07T02:18:25;18.80;;;11.50;;
3708;SDS011;1870;53.996;10.784;2023-05-07T02:20:51;12.57;;;10.40;;
3708;SDS011;1870;53.996;10.784;2023-05-07T02:23:17;13.40;;;9.40;;
3708;SDS011;1870;53.996;10.784;2023-05-07T02:25:42;16.10;;;11.30;;
3708;SDS011;1870;53.996;10.784;2023-05-07T02:28:08;12.67;;;8.97;;
3708;SDS011;1870;53.996;10.784;2023-05-07T02:30:37;15.43;;;10.20;;
3708;SDS011;1870;53.996;10.784;2023-05-07T02:33:03;18.50;;;11.10;;
3708;SDS011;1870;53.996;10.784;2023-05-07T02:35:29;12.20;;;9.77;;
3708;SDS011;1870;53.996;10.784;2023-05-07T02:37:54;13.87;;;9.90;;
3708;SDS011;1870;53.996;10.784;2023-05-07T02:40:20;14.37;;;10.13;;
3708;SDS011;1870;53.996;10.784;2023-05-07T02:42:46;17.50;;;10.93;;
3708;SDS011;1870;53.996;10.784;2023-05-07T02:45:11;16.80;;;9.70;;
3708;SDS011;1870;53.996;10.784;2023-05-07T02:47:37;14.63;;;10.10;;
3708;SDS011;1870;53.996;10.784;2023-05-07T02:50:03;16.73;;;10.47;;
3708;SDS011;1870;53.996;10.784;2023-05-07T02:52:31;15.50;;;11.23;;
3708;SDS011;1870;53.996;10.784;2023-05-07T02:54:57;15.17;;;10.10;;
3708;SDS011;1870;53.996;10.784;2023-05-07T02:57:22;21.53;;;11.43;;
3708;SDS011;1870;53.996;10.784;2023-05-07T02:59:48;13.37;;;10.30;;
3708;SDS011;1870;53.996;10.784;2023-05-07T03:02:14;16.90;;;10.10;;
3708;SDS011;1870;53.996;10.784;2023-05-07T03:04:39;18.00;;;10.57;;
3708;SDS011;1870;53.996;10.784;2023-05-07T03:07:06;12.63;;;10.23;;
3708;SDS011;1870;53.996;10.784;2023-05-07T03:09:31;19.73;;;11.33;;
3708;SDS011;1870;53.996;10.784;2023-05-07T03:11:57;14.57;;;9.73;;
3708;SDS011;1870;53.996;10.784;2023-05-07T03:14:22;13.20;;;10.03;;
3708;SDS011;1870;53.996;10.784;2023-05-07T03:16:48;15.47;;;9.73;;
3708;SDS011;1870;53.996;10.784;2023-05-07T03:19:15;15.50;;;10.00;;
3708;SDS011;1870;53.996;10.784;2023-05-07T03:21:40;17.07;;;11.77;;
3708;SDS011;1870;53.996;10.784;2023-05-07T03:24:06;18.83;;;11.87;;
3708;SDS011;1870;53.996;10.784;2023-05-07T03:26:32;15.10;;;10.70;;
3708;SDS011;1870;53.996;10.784;2023-05-07T03:28:57;13.80;;;10.57;;
3708;SDS011;1870;53.996;10.784;2023-05-07T03:31:23;14.30;;;9.90;;
3708;SDS011;1870;53.996;10.784;2023-05-07T03:33:50;17.23;;;10.30;;
3708;SDS011;1870;53.996;10.784;2023-05-07T03:36:17;15.70;;;10.60;;
3708;SDS011;1870;53.996;10.784;2023-05-07T03:38:42;17.73;;;11.57;;
3708;SDS011;1870;53.996;10.784;2023-05-07T03:41:08;15.93;;;10.80;;
3708;SDS011;1870;53.996;10.784;2023-05-07T03:43:34;16.37;;;10.57;;
3708;SDS011;1870;53.996;10.784;2023-05-07T03:45:59;15.93;;;10.50;;
3708;SDS011;1870;53.996;10.784;2023-05-07T03:48:25;16.00;;;10.37;;
3708;SDS011;1870;53.996;10.784;2023-05-07T03:50:50;15.53;;;10.13;;
3708;SDS011;1870;53.996;10.784;2023-05-07T03:53:16;18.83;;;11.27;;
3708;SDS011;1870;53.996;10.784;2023-05-07T03:55:42;14.60;;;10.10;;
3708;SDS011;1870;53.996;10.784;2023-05-07T03:58:07;16.17;;;10.57;;
3708;SDS011;1870;53.996;10.784;2023-05-07T04:00:33;16.60;;;10.70;;
3708;SDS011;1870;53.996;10.784;2023-05-07T04:03:03;19.77;;;11.70;;
3708;SDS011;1870;53.996;10.784;2023-05-07T04:05:29;14.67;;;9.20;;
3708;SDS011;1870;53.996;10.784;2023-05-07T04:07:55;17.90;;;11.20;;
3708;SDS011;1870;53.996;10.784;2023-05-07T04:10:22;15.03;;;10.30;;
3708;SDS011;1870;53.996;10.784;2023-05-07T04:12:48;23.30;;;12.40;;
3708;SDS011;1870;53.996;10.784;2023-05-07T04:15:13;15.27;;;10.53;;
3708;SDS011;1870;53.996;10.784;2023-05-07T04:17:39;14.10;;;10.03;;
3708;SDS011;1870;53.996;10.784;2023-05-07T04:20:08;13.77;;;10.27;;
3708;SDS011;1870;53.996;10.784;2023-05-07T04:22:35;15.13;;;9.40;;
3708;SDS011;1870;53.996;10.784;2023-05-07T04:25:01;12.43;;;8.97;;
3708;SDS011;1870;53.996;10.784;2023-05-07T04:27:27;17.40;;;10.30;;
3708;SDS011;1870;53.996;10.784;2023-05-07T04:29:53;15.40;;;10.03;;
3708;SDS011;1870;53.996;10.784;2023-05-07T04:32:21;16.80;;;9.87;;
3708;SDS011;1870;53.996;10.784;2023-05-07T04:34:47;14.43;;;10.13;;
3708;SDS011;1870;53.996;10.784;2023-05-07T04:37:12;15.43;;;9.00;;
3708;SDS011;1870;53.996;10.784;2023-05-07T04:39:38;14.53;;;8.30;;
3708;SDS011;1870;53.996;10.784;2023-05-07T04:42:04;17.50;;;10.40;;
3708;SDS011;1870;53.996;10.784;2023-05-07T04:44:30;15.20;;;10.97;;
3708;SDS011;1870;53.996;10.784;2023-05-07T04:46:56;11.37;;;8.93;;
3708;SDS011;1870;53.996;10.784;2023-05-07T04:49:22;16.97;;;10.30;;
3708;SDS011;1870;53.996;10.784;2023-05-07T04:51:48;12.23;;;8.83;;
3708;SDS011;1870;53.996;10.784;2023-05-07T04:54:13;13.10;;;9.97;;
3708;SDS011;1870;53.996;10.784;2023-05-07T04:56:39;13.90;;;8.50;;
3708;SDS011;1870;53.996;10.784;2023-05-07T04:59:05;14.23;;;8.80;;
3708;SDS011;1870;53.996;10.784;2023-05-07T05:01:31;12.53;;;8.60;;
3708;SDS011;1870;53.996;10.784;2023-05-07T05:03:56;13.70;;;10.43;;
3708;SDS011;1870;53.996;10.784;2023-05-07T05:06:22;12.97;;;9.13;;
3708;SDS011;1870;53.996;10.784;2023-05-07T05:08:48;13.77;;;8.83;;
3708;SDS011;1870;53.996;10.784;2023-05-07T05:11:13;11.50;;;8.13;;
3708;SDS011;1870;53.996;10.784;2023-05-07T05:13:39;12.60;;;8.87;;
3708;SDS011;1870;53.996;10.784;2023-05-07T05:16:05;10.07;;;8.23;;
3708;SDS011;1870;53.996;10.784;2023-05-07T05:18:35;14.50;;;8.20;;
3708;SDS011;1870;53.996;10.784;2023-05-07T05:21:01;12.50;;;8.63;;
3708;SDS011;1870;53.996;10.784;2023-05-07T05:23:26;12.93;;;9.60;;
3708;SDS011;1870;53.996;10.784;2023-05-07T05:25:56;14.20;;;8.90;;
3708;SDS011;1870;53.996;10.784;2023-05-07T05:28:22;14.93;;;9.17;;
3708;SDS011;1870;53.996;10.784;2023-05-07T05:30:48;11.63;;;8.23;;
3708;SDS011;1870;53.996;10.784;2023-05-07T05:33:14;13.80;;;9.50;;
3708;SDS011;1870;53.996;10.784;2023-05-07T05:35:40;11.70;;;8.50;;
3708;SDS011;1870;53.996;10.784;2023-05-07T05:38:06;11.83;;;8.10;;
3708;SDS011;1870;53.996;10.784;2023-05-07T05:40:32;14.33;;;9.00;;
3708;SDS011;1870;53.996;10.784;2023-05-07T05:42:58;10.97;;;8.03;;
3708;SDS011;1870;53.996;10.784;2023-05-07T05:45:24;12.70;;;7.90;;
3708;SDS011;1870;53.996;10.784;2023-05-07T05:47:50;11.40;;;9.10;;
3708;SDS011;1870;53.996;10.784;2023-05-07T05:50:15;11.30;;;7.90;;
3708;SDS011;1870;53.996;10.784;2023-05-07T05:52:41;12.27;;;8.37;;
3708;SDS011;1870;53.996;10.784;2023-05-07T05:55:07;11.23;;;8.27;;
3708;SDS011;1870;53.996;10.784;2023-05-07T05:57:33;15.60;;;8.03;;
3708;SDS011;1870;53.996;10.784;2023-05-07T06:00:01;10.93;;;7.80;;
3708;SDS011;1870;53.996;10.784;2023-05-07T06:02:27;9.93;;;7.30;;
3708;SDS011;1870;53.996;10.784;2023-05-07T06:04:53;15.83;;;7.83;;
3708;SDS011;1870;53.996;10.784;2023-05-07T06:07:19;14.53;;;7.20;;
3708;SDS011;1870;53.996;10.784;2023-05-07T06:09:44;15.63;;;8.30;;
3708;SDS011;1870;53.996;10.784;2023-05-07T06:12:10;11.23;;;6.63;;
3708;SDS011;1870;53.996;10.784;2023-05-07T06:14:36;11.70;;;8.10;;
3708;SDS011;1870;53.996;10.784;2023-05-07T06:17:02;8.67;;;6.23;;
3708;SDS011;1870;53.996;10.784;2023-05-07T06:19:27;8.17;;;6.70;;
3708;SDS011;1870;53.996;10.784;2023-05-07T06:21:53;10.23;;;6.77;;
3708;SDS011;1870;53.996;10.784;2023-05-07T06:24:21;11.80;;;6.20;;
3708;SDS011;1870;53.996;10.784;2023-05-07T06:26:46;8.90;;;6.80;;
3708;SDS011;1870;53.996;10.784;2023-05-07T06:29:12;8.20;;;6.37;;
3708;SDS011;1870;53.996;10.784;2023-05-07T06:31:38;10.53;;;5.97;;
3708;SDS011;1870;53.996;10.784;2023-05-07T06:34:03;8.53;;;5.57;;
3708;SDS011;1870;53.996;10.784;2023-05-07T06:36:29;7.40;;;6.37;;
3708;SDS011;1870;53.996;10.784;2023-05-07T06:38:55;6.80;;;5.30;;
3708;SDS011;1870;53.996;10.784;2023-05-07T06:41:21;6.97;;;5.87;;
3708;SDS011;1870;53.996;10.784;2023-05-07T06:43:47;7.50;;;5.90;;
3708;SDS011;1870;53.996;10.784;2023-05-07T06:46:12;7.90;;;6.67;;
3708;SDS011;1870;53.996;10.784;2023-05-07T06:48:38;8.67;;;5.70;;
3708;SDS011;1870;53.996;10.784;2023-05-07T06:51:03;6.33;;;5.20;;
3708;SDS011;1870;53.996;10.784;2023-05-07T06:53:29;6.70;;;5.63;;
3708;SDS011;1870;53.996;10.784;2023-05-07T06:55:55;11.20;;;6.30;;
3708;SDS011;1870;53.996;10.784;2023-05-07T06:58:21;7.80;;;6.97;;
3708;SDS011;1870;53.996;10.784;2023-05-07T07:00:47;8.47;;;6.20;;
3708;SDS011;1870;53.996;10.784;2023-05-07T07:03:13;9.07;;;7.30;;
3708;SDS011;1870;53.996;10.784;2023-05-07T07:05:42;7.70;;;6.33;;
3708;SDS011;1870;53.996;10.784;2023-05-07T07:08:08;7.47;;;6.40;;
3708;SDS011;1870;53.996;10.784;2023-05-07T07:10:34;9.57;;;7.73;;
3708;SDS011;1870;53.996;10.784;2023-05-07T07:13:00;16.00;;;6.83;;
3708;SDS011;1870;53.996;10.784;2023-05-07T07:15:26;7.63;;;6.67;;
3708;SDS011;1870;53.996;10.784;2023-05-07T07:17:53;8.33;;;6.10;;
3708;SDS011;1870;53.996;10.784;2023-05-07T07:20:19;10.57;;;7.00;;
3708;SDS011;1870;53.996;10.784;2023-05-07T07:22:45;7.80;;;6.63;;
3708;SDS011;1870;53.996;10.784;2023-05-07T07:25:10;13.43;;;6.47;;
3708;SDS011;1870;53.996;10.784;2023-05-07T07:27:36;9.93;;;7.40;;
3708;SDS011;1870;53.996;10.784;2023-05-07T07:30:02;8.53;;;5.80;;
3708;SDS011;1870;53.996;10.784;2023-05-07T07:32:28;5.80;;;5.20;;
3708;SDS011;1870;53.996;10.784;2023-05-07T07:34:54;8.57;;;5.37;;
3708;SDS011;1870;53.996;10.784;2023-05-07T07:37:19;6.97;;;5.67;;
3708;SDS011;1870;53.996;10.784;2023-05-07T07:39:45;9.33;;;5.90;;
3708;SDS011;1870;53.996;10.784;2023-05-07T07:42:11;8.13;;;6.20;;
3708;SDS011;1870;53.996;10.784;2023-05-07T07:44:36;7.13;;;5.60;;
3708;SDS011;1870;53.996;10.784;2023-05-07T07:47:04;9.90;;;6.10;;
3708;SDS011;1870;53.996;10.784;2023-05-07T07:49:30;8.00;;;5.93;;
3708;SDS011;1870;53.996;10.784;2023-05-07T07:51:55;7.17;;;5.87;;
3708;SDS011;1870;53.996;10.784;2023-05-07T07:54:23;7.97;;;6.07;;
3708;SDS011;1870;53.996;10.784;2023-05-07T07:56:49;10.10;;;5.50;;
3708;SDS011;1870;53.996;10.784;2023-05-07T07:59:14;8.50;;;6.37;;
3708;SDS011;1870;53.996;10.784;2023-05-07T08:01:43;6.93;;;6.03;;
3708;SDS011;1870;53.996;10.784;2023-05-07T08:04:09;7.63;;;5.93;;
3708;SDS011;1870;53.996;10.784;2023-05-07T08:06:35;5.97;;;5.37;;
3708;SDS011;1870;53.996;10.784;2023-05-07T08:09:01;10.00;;;5.27;;
3708;SDS011;1870;53.996;10.784;2023-05-07T08:11:27;8.83;;;6.20;;
3708;SDS011;1870;53.996;10.784;2023-05-07T08:13:53;6.87;;;5.30;;
3708;SDS011;1870;53.996;10.784;2023-05-07T08:16:20;6.00;;;5.40;;
3708;SDS011;1870;53.996;10.784;2023-05-07T08:18:48;9.57;;;5.40;;
3708;SDS011;1870;53.996;10.784;2023-05-07T08:21:13;6.67;;;5.63;;
3708;SDS011;1870;53.996;10.784;2023-05-07T08:23:39;6.67;;;5.07;;
3708;SDS011;1870;53.996;10.784;2023-05-07T08:26:04;7.63;;;5.00;;
3708;SDS011;1870;53.996;10.784;2023-05-07T08:28:30;6.70;;;4.90;;
3708;SDS011;1870;53.996;10.784;2023-05-07T08:30:56;7.30;;;5.57;;
3708;SDS011;1870;53.996;10.784;2023-05-07T08:33:21;6.00;;;5.17;;
3708;SDS011;1870;53.996;10.784;2023-05-07T08:35:47;8.43;;;5.40;;
3708;SDS011;1870;53.996;10.784;2023-05-07T08:38:15;5.63;;;4.93;;
3708;SDS011;1870;53.996;10.784;2023-05-07T08:40:41;10.03;;;7.20;;
3708;SDS011;1870;53.996;10.784;2023-05-07T08:43:07;5.67;;;5.10;;
3708;SDS011;1870;53.996;10.784;2023-05-07T08:45:34;6.63;;;4.97;;
3708;SDS011;1870;53.996;10.784;2023-05-07T08:48:05;9.20;;;5.30;;
3708;SDS011;1870;53.996;10.784;2023-05-07T08:50:35;5.57;;;5.00;;
3708;SDS011;1870;53.996;10.784;2023-05-07T08:53:02;5.50;;;4.97;;
3708;SDS011;1870;53.996;10.784;2023-05-07T08:55:29;7.37;;;6.70;;
3708;SDS011;1870;53.996;10.784;2023-05-07T08:57:55;7.40;;;4.63;;
3708;SDS011;1870;53.996;10.784;2023-05-07T09:00:21;6.33;;;4.90;;
3708;SDS011;1870;53.996;10.784;2023-05-07T09:02:47;6.73;;;5.20;;
3708;SDS011;1870;53.996;10.784;2023-05-07T09:05:13;6.53;;;5.57;;
3708;SDS011;1870;53.996;10.784;2023-05-07T09:07:39;5.17;;;4.67;;
3708;SDS011;1870;53.996;10.784;2023-05-07T09:10:04;6.90;;;4.77;;
3708;SDS011;1870;53.996;10.784;2023-05-07T09:12:31;7.83;;;5.10;;
3708;SDS011;1870;53.996;10.784;2023-05-07T09:14:57;6.17;;;5.43;;
3708;SDS011;1870;53.996;10.784;2023-05-07T09:17:23;7.97;;;4.17;;
3708;SDS011;1870;53.996;10.784;2023-05-07T09:22:18;5.53;;;5.03;;
3708;SDS011;1870;53.996;10.784;2023-05-07T09:24:52;4.90;;;4.50;;
3708;SDS011;1870;53.996;10.784;2023-05-07T09:27:18;7.90;;;6.50;;
3708;SDS011;1870;53.996;10.784;2023-05-07T09:29:43;5.13;;;4.63;;
3708;SDS011;1870;53.996;10.784;2023-05-07T09:32:09;6.13;;;5.60;;
3708;SDS011;1870;53.996;10.784;2023-05-07T09:34:35;5.90;;;5.17;;
3708;SDS011;1870;53.996;10.784;2023-05-07T09:37:04;4.77;;;4.07;;
3708;SDS011;1870;53.996;10.784;2023-05-07T09:39:40;6.80;;;5.70;;
3708;SDS011;1870;53.996;10.784;2023-05-07T09:42:06;4.57;;;4.20;;
3708;SDS011;1870;53.996;10.784;2023-05-07T09:44:32;5.30;;;4.17;;
3708;SDS011;1870;53.996;10.784;2023-05-07T09:46:59;4.20;;;3.80;;
3708;SDS011;1870;53.996;10.784;2023-05-07T09:49:26;6.17;;;4.20;;
3708;SDS011;1870;53.996;10.784;2023-05-07T09:51:57;4.73;;;3.77;;
3708;SDS011;1870;53.996;10.784;2023-05-07T09:54:25;8.40;;;4.07;;
3708;SDS011;1870;53.996;10.784;2023-05-07T09:56:53;4.53;;;3.37;;
3708;SDS011;1870;53.996;10.784;2023-05-07T09:59:20;7.63;;;3.93;;
3708;SDS011;1870;53.996;10.784;2023-05-07T10:01:47;7.40;;;3.57;;
3708;SDS011;1870;53.996;10.784;2023-05-07T10:04:14;5.73;;;3.90;;
3708;SDS011;1870;53.996;10.784;2023-05-07T10:06:40;3.57;;;3.27;;
3708;SDS011;1870;53.996;10.784;2023-05-07T10:09:06;3.50;;;3.20;;
3708;SDS011;1870;53.996;10.784;2023-05-07T10:11:32;3.70;;;3.40;;
3708;SDS011;1870;53.996;10.784;2023-05-07T10:13:59;4.00;;;3.57;;
3708;SDS011;1870;53.996;10.784;2023-05-07T10:16:27;5.77;;;3.80;;
3708;SDS011;1870;53.996;10.784;2023-05-07T10:18:58;4.13;;;3.83;;
3708;SDS011;1870;53.996;10.784;2023-05-07T10:21:24;4.60;;;4.20;;
3708;SDS011;1870;53.996;10.784;2023-05-07T10:23:58;4.53;;;4.13;;
3708;SDS011;1870;53.996;10.784;2023-05-07T10:26:32;3.67;;;3.37;;
3708;SDS011;1870;53.996;10.784;2023-05-07T10:29:45;5.20;;;3.30;;
3708;SDS011;1870;53.996;10.784;2023-05-07T10:32:13;4.20;;;3.80;;
3708;SDS011;1870;53.996;10.784;2023-05-07T10:34:53;4.10;;;3.67;;
3708;SDS011;1870;53.996;10.784;2023-05-07T10:37:20;4.53;;;4.13;;
3708;SDS011;1870;53.996;10.784;2023-05-07T10:39:47;5.43;;;4.27;;
3708;SDS011;1870;53.996;10.784;2023-05-07T10:42:13;3.40;;;3.10;;
3708;SDS011;1870;53.996;10.784;2023-05-07T10:44:39;4.10;;;3.80;;
3708;SDS011;1870;53.996;10.784;2023-05-07T10:49:36;3.60;;;3.27;;
3708;SDS011;1870;53.996;10.784;2023-05-07T10:52:22;6.33;;;3.23;;
3708;SDS011;1870;53.996;10.784;2023-05-07T10:57:46;3.30;;;3.00;;
3708;SDS011;1870;53.996;10.784;2023-05-07T11:05:24;3.70;;;3.47;;
3708;SDS011;1870;53.996;10.784;2023-05-07T11:07:54;4.27;;;3.87;;
3708;SDS011;1870;53.996;10.784;2023-05-07T11:13:19;7.37;;;3.83;;
3708;SDS011;1870;53.996;10.784;2023-05-07T11:16:24;3.70;;;3.40;;
3708;SDS011;1870;53.996;10.784;2023-05-07T11:18:52;4.13;;;3.70;;
3708;SDS011;1870;53.996;10.784;2023-05-07T11:21:32;3.93;;;3.63;;
3708;SDS011;1870;53.996;10.784;2023-05-07T11:23:59;3.47;;;3.23;;
3708;SDS011;1870;53.996;10.784;2023-05-07T11:26:59;3.67;;;3.27;;
3708;SDS011;1870;53.996;10.784;2023-05-07T11:29:19;4.53;;;4.13;;
3708;SDS011;1870;53.996;10.784;2023-05-07T11:31:50;5.10;;;4.60;;
3708;SDS011;1870;53.996;10.784;2023-05-07T11:34:23;5.13;;;4.07;;
3708;SDS011;1870;53.996;10.784;2023-05-07T11:36:52;5.00;;;4.50;;
3708;SDS011;1870;53.996;10.784;2023-05-07T11:39:29;3.77;;;3.33;;
3708;SDS011;1870;53.996;10.784;2023-05-07T11:41:57;3.40;;;2.90;;
3708;SDS011;1870;53.996;10.784;2023-05-07T11:44:24;4.60;;;3.37;;
3708;SDS011;1870;53.996;10.784;2023-05-07T11:46:50;4.33;;;3.63;;
3708;SDS011;1870;53.996;10.784;2023-05-07T11:49:15;4.10;;;3.80;;
3708;SDS011;1870;53.996;10.784;2023-05-07T11:51:42;3.90;;;3.60;;
3708;SDS011;1870;53.996;10.784;2023-05-07T11:54:08;5.50;;;4.10;;
3708;SDS011;1870;53.996;10.784;2023-05-07T11:56:36;4.00;;;3.70;;
3708;SDS011;1870;53.996;10.784;2023-05-07T11:59:02;4.27;;;3.83;;
3708;SDS011;1870;53.996;10.784;2023-05-07T12:01:28;4.20;;;3.73;;
3708;SDS011;1870;53.996;10.784;2023-05-07T12:03:53;5.00;;;3.67;;
3708;SDS011;1870;53.996;10.784;2023-05-07T12:06:19;5.50;;;3.60;;
3708;SDS011;1870;53.996;10.784;2023-05-07T12:08:45;3.87;;;3.50;;
3708;SDS011;1870;53.996;10.784;2023-05-07T12:11:15;3.97;;;3.67;;
3708;SDS011;1870;53.996;10.784;2023-05-07T12:13:46;3.73;;;3.43;;
3708;SDS011;1870;53.996;10.784;2023-05-07T12:16:12;4.23;;;3.07;;
3708;SDS011;1870;53.996;10.784;2023-05-07T12:18:38;3.80;;;3.40;;
3708;SDS011;1870;53.996;10.784;2023-05-07T12:21:05;3.97;;;3.57;;
3708;SDS011;1870;53.996;10.784;2023-05-07T12:23:32;6.30;;;3.47;;
3708;SDS011;1870;53.996;10.784;2023-05-07T12:25:59;4.50;;;3.50;;
3708;SDS011;1870;53.996;10.784;2023-05-07T12:28:28;3.90;;;3.10;;
3708;SDS011;1870;53.996;10.784;2023-05-07T12:30:54;3.30;;;3.00;;
3708;SDS011;1870;53.996;10.784;2023-05-07T12:33:23;3.90;;;3.60;;
3708;SDS011;1870;53.996;10.784;2023-05-07T12:35:50;4.60;;;3.30;;
3708;SDS011;1870;53.996;10.784;2023-05-07T12:38:17;4.30;;;3.47;;
3708;SDS011;1870;53.996;10.784;2023-05-07T12:40:47;6.70;;;3.23;;
3708;SDS011;1870;53.996;10.784;2023-05-07T12:43:19;3.67;;;3.23;;
3708;SDS011;1870;53.996;10.784;2023-05-07T12:45:47;5.10;;;3.50;;
3708;SDS011;1870;53.996;10.784;2023-05-07T12:48:14;3.60;;;3.00;;
3708;SDS011;1870;53.996;10.784;2023-05-07T12:50:39;3.63;;;3.10;;
3708;SDS011;1870;53.996;10.784;2023-05-07T12:53:06;5.33;;;3.30;;
3708;SDS011;1870;53.996;10.784;2023-05-07T12:55:39;3.23;;;2.93;;
3708;SDS011;1870;53.996;10.784;2023-05-07T12:58:14;4.43;;;3.43;;
3708;SDS011;1870;53.996;10.784;2023-05-07T13:00:41;3.77;;;3.37;;
3708;SDS011;1870;53.996;10.784;2023-05-07T13:03:08;4.97;;;3.30;;
3708;SDS011;1870;53.996;10.784;2023-05-07T13:05:34;8.33;;;3.10;;
3708;SDS011;1870;53.996;10.784;2023-05-07T13:08:00;4.00;;;3.50;;
3708;SDS011;1870;53.996;10.784;2023-05-07T13:10:26;4.70;;;3.90;;
3708;SDS011;1870;53.996;10.784;2023-05-07T13:12:53;3.40;;;3.10;;
3708;SDS011;1870;53.996;10.784;2023-05-07T13:15:19;4.30;;;3.63;;
3708;SDS011;1870;53.996;10.784;2023-05-07T13:17:45;4.87;;;3.40;;
3708;SDS011;1870;53.996;10.784;2023-05-07T13:20:12;3.73;;;3.43;;
3708;SDS011;1870;53.996;10.784;2023-05-07T13:22:38;3.50;;;3.20;;
3708;SDS011;1870;53.996;10.784;2023-05-07T13:25:05;3.40;;;3.20;;
3708;SDS011;1870;53.996;10.784;2023-05-07T13:27:31;3.60;;;3.30;;
3708;SDS011;1870;53.996;10.784;2023-05-07T13:29:57;3.40;;;3.20;;
3708;SDS011;1870;53.996;10.784;2023-05-07T13:32:22;6.17;;;3.47;;
3708;SDS011;1870;53.996;10.784;2023-05-07T13:34:48;4.27;;;3.30;;
3708;SDS011;1870;53.996;10.784;2023-05-07T13:37:14;5.43;;;2.77;;
3708;SDS011;1870;53.996;10.784;2023-05-07T13:39:39;3.67;;;3.37;;
3708;SDS011;1870;53.996;10.784;2023-05-07T13:42:05;8.70;;;3.97;;
3708;SDS011;1870;53.996;10.784;2023-05-07T13:44:31;4.10;;;3.90;;
3708;SDS011;1870;53.996;10.784;2023-05-07T13:46:57;6.80;;;4.43;;
3708;SDS011;1870;53.996;10.784;2023-05-07T13:49:23;3.57;;;3.10;;
3708;SDS011;1870;53.996;10.784;2023-05-07T13:51:49;4.07;;;3.70;;
3708;SDS011;1870;53.996;10.784;2023-05-07T13:54:14;4.03;;;3.67;;
3708;SDS011;1870;53.996;10.784;2023-05-07T13:56:40;3.53;;;3.23;;
3708;SDS011;1870;53.996;10.784;2023-05-07T13:59:06;4.50;;;3.37;;
3708;SDS011;1870;53.996;10.784;2023-05-07T14:01:32;5.23;;;3.60;;
3708;SDS011;1870;53.996;10.784;2023-05-07T14:03:58;3.93;;;3.63;;
3708;SDS011;1870;53.996;10.784;2023-05-07T14:06:24;3.90;;;3.20;;
3708;SDS011;1870;53.996;10.784;2023-05-07T14:08:50;4.20;;;3.23;;
3708;SDS011;1870;53.996;10.784;2023-05-07T14:11:16;3.03;;;2.70;;
3708;SDS011;1870;53.996;10.784;2023-05-07T14:13:42;5.83;;;3.53;;
3708;SDS011;1870;53.996;10.784;2023-05-07T14:16:07;3.80;;;3.47;;
3708;SDS011;1870;53.996;10.784;2023-05-07T14:18:33;4.10;;;3.70;;
3708;SDS011;1870;53.996;10.784;2023-05-07T14:21:02;3.27;;;2.97;;
3708;SDS011;1870;53.996;10.784;2023-05-07T14:23:29;3.40;;;2.70;;
3708;SDS011;1870;53.996;10.784;2023-05-07T14:25:59;2.80;;;2.60;;
3708;SDS011;1870;53.996;10.784;2023-05-07T14:28:25;3.40;;;3.10;;
3708;SDS011;1870;53.996;10.784;2023-05-07T14:30:50;3.23;;;2.97;;
3708;SDS011;1870;53.996;10.784;2023-05-07T14:33:16;6.50;;;4.27;;
3708;SDS011;1870;53.996;10.784;2023-05-07T14:35:42;4.60;;;3.63;;
3708;SDS011;1870;53.996;10.784;2023-05-07T14:38:12;4.37;;;3.70;;
3708;SDS011;1870;53.996;10.784;2023-05-07T14:40:38;3.40;;;3.20;;
3708;SDS011;1870;53.996;10.784;2023-05-07T14:43:04;3.43;;;3.00;;
3708;SDS011;1870;53.996;10.784;2023-05-07T14:45:29;3.77;;;3.30;;
3708;SDS011;1870;53.996;10.784;2023-05-07T14:47:55;3.20;;;2.63;;
3708;SDS011;1870;53.996;10.784;2023-05-07T14:50:21;3.10;;;2.90;;
3708;SDS011;1870;53.996;10.784;2023-05-07T14:52:46;3.40;;;3.10;;
3708;SDS011;1870;53.996;10.784;2023-05-07T14:55:12;5.23;;;3.73;;
3708;SDS011;1870;53.996;10.784;2023-05-07T14:57:38;2.83;;;2.53;;
3708;SDS011;1870;53.996;10.784;2023-05-07T15:00:04;3.40;;;3.10;;
3708;SDS011;1870;53.996;10.784;2023-05-07T15:02:30;7.00;;;3.30;;
3708;SDS011;1870;53.996;10.784;2023-05-07T15:04:55;3.23;;;3.03;;